Danica Hav — C6ML9 — position and weather

sailwx.info

Track history (hours):
 
Tides and Currents Weather Stations Pressure Air Temp Water Temp Dewpoint Dewpoint Depression Visibility Wind Speed Wind Dir Waves Ship Positions

Danica Hav

Last reported at 2017-Dec-11 11:36 UTC. Time now 2017-Dec-13 01:18 UTC.
Position N 53°42' W 000°33'.

Length 82 m; draft 2.7 m.

Type: Cargo ship. MMSI: 308924000.

Date/timePositionNaut miles runAvg speedWind from/ knotsBaromVisibWave heightAir tempDewpointWater temp
2017-Dec-11 11:36N 53°42' W 000°33'2 8.7
2017-Dec-11 11:22N 53°41' W 000°30'3 9.0
2017-Dec-11 11:00N 53°42' W 000°25'5 9.8
2017-Dec-11 10:30N 53°44' W 000°17'5 9.3
2017-Dec-11 10:00N 53°40' W 000°12'5 9.9
2017-Dec-11 09:30N 53°37' W 000°05'4 7.9
2017-Dec-11 08:59N 53°35' E 000°01'4 7.4
2017-Dec-11 08:30N 53°34' E 000°07'51 3.8
2017-Dec-10 19:05N 53°01' E 001°12'1 9.9
2017-Dec-10 18:56N 53°00' E 001°15'410.1
2017-Dec-10 18:30N 52°59' E 001°21'510.1
2017-Dec-10 18:00N 52°57' E 001°29'510.0
2017-Dec-10 17:30N 52°53' E 001°35'5 9.2
2017-Dec-10 17:00N 52°50' E 001°40'4 8.4
2017-Dec-10 16:30N 52°47' E 001°45'4 7.6
2017-Dec-10 16:00N 52°44' E 001°48'3 6.8
2017-Dec-10 15:30N 52°41' E 001°50'8 5.0
2017-Dec-10 13:57N 52°33' E 001°53'2 4.6
2017-Dec-10 13:30N 52°31' E 001°52'2 4.5
2017-Dec-10 13:00N 52°29' E 001°51'2 4.7
2017-Dec-10 12:30N 52°26' E 001°51'3 5.1
2017-Dec-10 12:00N 52°24' E 001°50'12 6.9
2017-Dec-10 10:14N 52°12' E 001°47'2 8.2
2017-Dec-10 10:00N 52°10' E 001°47'4 8.9
2017-Dec-10 09:30N 52°05' E 001°47'5 9.7
2017-Dec-10 09:00N 52°01' E 001°48'5 9.9
2017-Dec-10 08:30N 51°56' E 001°49'5 9.9
2017-Dec-10 08:00N 51°51' E 001°49'510.1
2017-Dec-10 07:30N 51°46' E 001°49'510.0
2017-Dec-10 07:00N 51°41' E 001°50'5 9.5
2017-Dec-10 06:30N 51°36' E 001°52'5 9.5
2017-Dec-10 06:00N 51°32' E 001°55'5 9.2
2017-Dec-10 05:30N 51°28' E 001°58'4 9.0
2017-Dec-10 05:00N 51°24' E 002°02'5 9.1
2017-Dec-10 04:30N 51°20' E 002°05'4 8.9
2017-Dec-10 04:00N 51°15' E 002°04'5 9.8
2017-Dec-10 03:30N 51°12' E 001°58'5 9.1
2017-Dec-10 03:00N 51°09' E 001°52'4 8.6
2017-Dec-10 02:30N 51°06' E 001°47'3 5.5
2017-Dec-10 01:59N 51°03' E 001°49'5 9.4
2017-Dec-10 01:29N 51°03' E 001°56'6 9.8
2017-Dec-10 00:55N 51°03' E 002°05'4 9.7
2017-Dec-10 00:29N 51°04' E 002°12'5 9.7
2017-Dec-10 00:00N 51°04' E 002°19'2 3.0
2017-Dec-09 23:26N 51°03' E 002°21'0 0.4
2017-Dec-09 22:55N 51°03' E 002°21'3 5.8
2017-Dec-09 22:24N 51°03' E 002°16'1 0.5
2017-Dec-09 21:17N 51°02' E 002°16'0 0.0
2017-Dec-09 20:59N 51°02' E 002°16'0 0.0
2017-Dec-09 20:26N 51°02' E 002°16'0 0.0
2017-Dec-09 19:56N 51°02' E 002°16'0 0.0
2017-Dec-09 19:23N 51°02' E 002°16'0 0.0
2017-Dec-09 18:59N 51°02' E 002°16'0 0.0
2017-Dec-09 18:26N 51°02' E 002°16'0 0.0
2017-Dec-09 17:53N 51°02' E 002°16'0 0.0
2017-Dec-09 17:29N 51°02' E 002°16'0 0.0
2017-Dec-09 16:53N 51°02' E 002°16'0 0.0
2017-Dec-09 16:26N 51°02' E 002°16'0 0.0
2017-Dec-09 15:35N 51°02' E 002°16'0 0.0
2017-Dec-09 15:29N 51°02' E 002°16'0 0.0
2017-Dec-09 14:59N 51°02' E 002°16'0 0.0
2017-Dec-09 14:14N 51°02' E 002°16'0 0.0
2017-Dec-09 13:44N 51°02' E 002°16'0 0.0
2017-Dec-09 13:29N 51°02' E 002°16'0 0.0
2017-Dec-09 12:59N 51°02' E 002°16'0 0.0
2017-Dec-09 12:29N 51°02' E 002°16'0 0.0
2017-Dec-09 11:59N 51°02' E 002°16'0 0.0
2017-Dec-09 11:29N 51°02' E 002°16'0 0.0
2017-Dec-09 10:59N 51°02' E 002°16'0 0.0
2017-Dec-09 10:26N 51°02' E 002°16'0 0.0
2017-Dec-09 09:59N 51°02' E 002°16'0 0.0
2017-Dec-09 09:14N 51°02' E 002°16'0 0.0
2017-Dec-09 08:59N 51°02' E 002°16'0 0.0
2017-Dec-09 08:29N 51°02' E 002°16'0 0.0
2017-Dec-09 07:44N 51°02' E 002°16'0 0.0
2017-Dec-09 07:23N 51°02' E 002°16'0 0.0
2017-Dec-09 06:55N 51°02' E 002°16'0 0.0
2017-Dec-09 06:25N 51°02' E 002°16'0 0.0
2017-Dec-09 05:58N 51°02' E 002°16'0 0.0
2017-Dec-09 05:28N 51°02' E 002°16'0 0.0
2017-Dec-09 04:10N 51°02' E 002°16'0 0.0
2017-Dec-09 03:52N 51°02' E 002°16'0 0.0
2017-Dec-09 03:22N 51°02' E 002°16'0 0.0
2017-Dec-09 02:58N 51°02' E 002°16'0 0.0
2017-Dec-09 02:28N 51°02' E 002°16'0 0.0
2017-Dec-09 01:58N 51°02' E 002°16'0 0.0
2017-Dec-09 01:28N 51°02' E 002°16'0 0.0
2017-Dec-09 00:58N 51°02' E 002°16'0 0.0
2017-Dec-09 00:28N 51°02' E 002°16'0 0.0
2017-Dec-08 23:58N 51°02' E 002°16'0 0.0
2017-Dec-08 23:22N 51°02' E 002°16'0 0.0
2017-Dec-08 22:58N 51°02' E 002°16'0 0.0
2017-Dec-08 22:25N 51°02' E 002°16'0 0.0
2017-Dec-08 21:58N 51°02' E 002°16'0 0.0
2017-Dec-08 21:13N 51°02' E 002°16'0 0.0
2017-Dec-08 20:55N 51°02' E 002°16'0 0.0
2017-Dec-08 20:28N 51°02' E 002°16'0 0.0
2017-Dec-08 19:58N 51°02' E 002°16'0 0.0
2017-Dec-08 19:22N 51°02' E 002°16'0 0.0
2017-Dec-08 18:58N 51°02' E 002°16'0 0.0
2017-Dec-08 18:28N 51°02' E 002°16'0 0.0
2017-Dec-08 17:58N 51°02' E 002°16'0 0.0
2017-Dec-08 17:28N 51°02' E 002°16'0 0.0
2017-Dec-08 16:55N 51°02' E 002°16'0 0.0
2017-Dec-08 16:22N 51°02' E 002°16'0 0.0
2017-Dec-08 15:58N 51°02' E 002°16'0 0.0
2017-Dec-08 15:28N 51°02' E 002°16'0 0.0
2017-Dec-08 14:55N 51°02' E 002°16'0 0.0
2017-Dec-08 14:28N 51°02' E 002°16'0 0.0
2017-Dec-08 13:58N 51°02' E 002°16'0 0.0
2017-Dec-08 13:16N 51°02' E 002°16'0 0.0
2017-Dec-08 12:43N 51°02' E 002°16'0 0.0
2017-Dec-08 12:27N 51°02' E 002°16'0 0.0
2017-Dec-08 12:01N 51°02' E 002°16'0 0.0
2017-Dec-08 11:30N 51°02' E 002°16'0 0.0
2017-Dec-08 10:58N 51°02' E 002°16'0 0.0
2017-Dec-08 10:27N 51°02' E 002°16'0 0.0
2017-Dec-08 09:57N 51°02' E 002°16'1 2.4
2017-Dec-08 09:28N 51°03' E 002°18'3 5.4
2017-Dec-08 08:57N 51°03' E 002°22'0 0.0
2017-Dec-08 08:27N 51°03' E 002°22'1 2.3
2017-Dec-08 08:00N 51°04' E 002°21'4 6.5
2017-Dec-08 07:27N 51°04' E 002°15'4 8.6
2017-Dec-08 07:00N 51°03' E 002°09'4 8.7
2017-Dec-08 06:30N 51°03' E 002°02'4 8.9
2017-Dec-08 06:00N 51°02' E 001°55'5 9.6
2017-Dec-08 05:30N 51°02' E 001°48'510.6
2017-Dec-08 05:00N 51°02' E 001°39'611.3
2017-Dec-08 04:30N 51°01' E 001°30'4 8.7
2017-Dec-08 04:00N 51°05' E 001°26'510.3
2017-Dec-08 03:30N 51°02' E 001°18'611.7
2017-Dec-08 03:00N 50°59' E 001°11'1010.6
2017-Dec-08 02:04N 50°53' E 000°57'410.4
2017-Dec-08 01:39N 50°54' E 000°50'1 9.9
2017-Dec-08 01:30N 50°54' E 000°48'3 5.6
2017-Dec-08 00:55N 50°56' E 000°46'0 0.1
2017-Dec-08 00:26N 50°56' E 000°46'0 0.0
2017-Dec-07 18:14N 50°56' E 000°46'0 0.0
2017-Dec-07 16:26N 50°56' E 000°46'0 0.0
2017-Dec-07 15:59N 50°56' E 000°46'0 0.0
2017-Dec-07 15:26N 50°56' E 000°46'0 0.0
2017-Dec-07 14:56N 50°56' E 000°46'0 0.0
2017-Dec-07 14:29N 50°56' E 000°46'0 0.0
2017-Dec-07 13:59N 50°56' E 000°46'0 0.0
2017-Dec-07 13:29N 50°56' E 000°46'0 0.0
2017-Dec-07 12:59N 50°56' E 000°46'0 0.0
2017-Dec-07 12:26N 50°56' E 000°46'0 0.0
2017-Dec-07 11:56N 50°56' E 000°46'0 0.0
2017-Dec-07 11:11N 50°56' E 000°46'0 0.0
2017-Dec-07 10:20N 50°56' E 000°46'0 0.0
2017-Dec-07 09:50N 50°56' E 000°46'0 0.0
2017-Dec-07 09:29N 50°56' E 000°46'0 0.0
2017-Dec-07 08:59N 50°56' E 000°46'0 0.0
2017-Dec-07 08:26N 50°56' E 000°46'0 0.0
2017-Dec-07 07:59N 50°56' E 000°46'0 0.0
2017-Dec-07 07:29N 50°56' E 000°46'0 0.0
2017-Dec-07 06:59N 50°56' E 000°46'0 0.0
2017-Dec-07 06:29N 50°56' E 000°46'0 0.0
2017-Dec-07 05:56N 50°56' E 000°46'0 0.0
2017-Dec-07 05:26N 50°56' E 000°46'0 0.0
2017-Dec-07 04:56N 50°56' E 000°46'0 0.0
2017-Dec-07 04:20N 50°56' E 000°46'0 0.0
2017-Dec-07 03:56N 50°56' E 000°46'0 0.0
2017-Dec-07 03:29N 50°56' E 000°46'0 0.0
2017-Dec-07 02:55N 50°56' E 000°46'0 0.0
2017-Dec-07 02:28N 50°56' E 000°46'0 0.0
2017-Dec-07 01:58N 50°56' E 000°46'0 0.0
2017-Dec-07 01:28N 50°56' E 000°46'0 0.0
2017-Dec-07 00:58N 50°56' E 000°46'0 0.0
2017-Dec-07 00:28N 50°56' E 000°46'0 0.0
2017-Dec-06 23:58N 50°56' E 000°46'0 0.0
2017-Dec-06 23:01N 50°56' E 000°46'0 0.1
2017-Dec-06 22:58N 50°56' E 000°46'0 0.0
2017-Dec-06 22:25N 50°56' E 000°46'0 0.0
2017-Dec-06 21:55N 50°56' E 000°46'0 0.0
2017-Dec-06 20:55N 50°56' E 000°46'  
2017-Dec-04 10:29N 50°02' W 004°17'4 7.7
2017-Dec-04 09:57N 50°01' W 004°24'4 8.0
2017-Dec-04 09:28N 50°00' W 004°30'6 8.2
2017-Dec-04 08:47N 49°59' W 004°38'2 8.4
2017-Dec-04 08:30N 49°59' W 004°42'4 8.6
2017-Dec-04 08:01N 49°58' W 004°48'5 9.0
2017-Dec-04 07:25N 49°57' W 004°56'4 9.4
2017-Dec-04 06:59N 49°56' W 005°02'203 6.1
2017-Dec-02 21:26N 53°16' W 004°05'2 4.7
2017-Dec-02 21:00N 53°15' W 004°07'1 0.3
2017-Dec-02 18:53N 53°14' W 004°07'0 0.0
2017-Dec-02 18:29N 53°14' W 004°07'0 0.0
2017-Dec-02 17:59N 53°14' W 004°07'0 0.0
2017-Dec-02 15:41N 53°14' W 004°07'0 0.0
2017-Dec-02 15:23N 53°14' W 004°07'0 0.0
2017-Dec-02 14:59N 53°14' W 004°07'0 0.0
2017-Dec-02 14:23N 53°14' W 004°07'0 0.0
2017-Dec-02 13:56N 53°14' W 004°07'0 0.0
2017-Dec-02 13:29N 53°14' W 004°07'0 0.0
2017-Dec-02 12:53N 53°14' W 004°07'0 0.0
2017-Dec-02 12:23N 53°14' W 004°07'0 0.0
2017-Dec-02 06:47N 53°14' W 004°07'0 0.0
2017-Dec-02 06:20N 53°14' W 004°07'0 0.0
2017-Dec-02 05:56N 53°14' W 004°07'0 0.0
2017-Dec-02 05:29N 53°14' W 004°07'0 0.0
2017-Dec-02 04:44N 53°14' W 004°07'0 0.0
2017-Dec-02 04:26N 53°14' W 004°07'0 0.0
2017-Dec-02 03:56N 53°14' W 004°07'0 0.0
2017-Dec-02 03:29N 53°14' W 004°07'0 0.0
2017-Dec-02 02:59N 53°14' W 004°07'0 0.0
2017-Dec-02 02:23N 53°14' W 004°07'0 0.0
2017-Dec-02 01:53N 53°14' W 004°07'0 0.0
2017-Dec-02 01:23N 53°14' W 004°07'0 0.0
2017-Dec-02 00:50N 53°14' W 004°07'0 0.0
2017-Dec-02 00:29N 53°14' W 004°07'0 0.0
2017-Dec-01 23:59N 53°14' W 004°07'0 0.0
2017-Dec-01 23:23N 53°14' W 004°07'0 0.0
2017-Dec-01 20:32N 53°14' W 004°07'0 0.1
2017-Dec-01 20:30N 53°14' W 004°07'3 4.4
2017-Dec-01 19:46N 53°17' W 004°04'4 1.9
2017-Dec-01 17:40N 53°20' W 003°59'0 0.0
2017-Dec-01 17:25N 53°20' W 003°59'0 0.0
2017-Dec-01 16:52N 53°20' W 003°59'0 0.0
2017-Dec-01 16:25N 53°20' W 003°59'0 0.0
2017-Dec-01 15:58N 53°20' W 003°59'0 0.0
2017-Dec-01 15:19N 53°20' W 003°59'0 0.0
2017-Dec-01 14:55N 53°20' W 003°59'0 0.0
2017-Dec-01 14:19N 53°20' W 003°59'0 0.0
2017-Dec-01 12:49N 53°20' W 003°59'0 1.0
2017-Dec-01 12:29N 53°19' W 003°59'6 8.0
2017-Dec-01 11:40N 53°26' W 003°55'  
Track history (hours):
 
Tides and Currents Weather Stations Pressure Air Temp Water Temp Dewpoint Dewpoint Depression Visibility Wind Speed Wind Dir Waves Ship Positions

Danica Hav

Last reported at 2017-Dec-11 11:36 UTC. Time now 2017-Dec-13 01:18 UTC.
Position N 53°42' W 000°33'.

Length 82 m; draft 2.7 m.

Type: Cargo ship. MMSI: 308924000.

Date/timePositionNaut miles runAvg speedWind from/ knotsBaromVisibWave heightAir tempDewpointWater temp
2017-Dec-11 11:36N 53°42' W 000°33'2 8.7
2017-Dec-11 11:22N 53°41' W 000°30'3 9.0
2017-Dec-11 11:00N 53°42' W 000°25'5 9.8
2017-Dec-11 10:30N 53°44' W 000°17'5 9.3
2017-Dec-11 10:00N 53°40' W 000°12'5 9.9
2017-Dec-11 09:30N 53°37' W 000°05'4 7.9
2017-Dec-11 08:59N 53°35' E 000°01'4 7.4
2017-Dec-11 08:30N 53°34' E 000°07'51 3.8
2017-Dec-10 19:05N 53°01' E 001°12'1 9.9
2017-Dec-10 18:56N 53°00' E 001°15'410.1
2017-Dec-10 18:30N 52°59' E 001°21'510.1
2017-Dec-10 18:00N 52°57' E 001°29'510.0
2017-Dec-10 17:30N 52°53' E 001°35'5 9.2
2017-Dec-10 17:00N 52°50' E 001°40'4 8.4
2017-Dec-10 16:30N 52°47' E 001°45'4 7.6
2017-Dec-10 16:00N 52°44' E 001°48'3 6.8
2017-Dec-10 15:30N 52°41' E 001°50'8 5.0
2017-Dec-10 13:57N 52°33' E 001°53'2 4.6
2017-Dec-10 13:30N 52°31' E 001°52'2 4.5
2017-Dec-10 13:00N 52°29' E 001°51'2 4.7
2017-Dec-10 12:30N 52°26' E 001°51'3 5.1
2017-Dec-10 12:00N 52°24' E 001°50'12 6.9
2017-Dec-10 10:14N 52°12' E 001°47'2 8.2
2017-Dec-10 10:00N 52°10' E 001°47'4 8.9
2017-Dec-10 09:30N 52°05' E 001°47'5 9.7
2017-Dec-10 09:00N 52°01' E 001°48'5 9.9
2017-Dec-10 08:30N 51°56' E 001°49'5 9.9
2017-Dec-10 08:00N 51°51' E 001°49'510.1
2017-Dec-10 07:30N 51°46' E 001°49'510.0
2017-Dec-10 07:00N 51°41' E 001°50'5 9.5
2017-Dec-10 06:30N 51°36' E 001°52'5 9.5
2017-Dec-10 06:00N 51°32' E 001°55'5 9.2
2017-Dec-10 05:30N 51°28' E 001°58'4 9.0
2017-Dec-10 05:00N 51°24' E 002°02'5 9.1
2017-Dec-10 04:30N 51°20' E 002°05'4 8.9
2017-Dec-10 04:00N 51°15' E 002°04'5 9.8
2017-Dec-10 03:30N 51°12' E 001°58'5 9.1
2017-Dec-10 03:00N 51°09' E 001°52'4 8.6
2017-Dec-10 02:30N 51°06' E 001°47'3 5.5
2017-Dec-10 01:59N 51°03' E 001°49'5 9.4
2017-Dec-10 01:29N 51°03' E 001°56'6 9.8
2017-Dec-10 00:55N 51°03' E 002°05'4 9.7
2017-Dec-10 00:29N 51°04' E 002°12'5 9.7
2017-Dec-10 00:00N 51°04' E 002°19'2 3.0
2017-Dec-09 23:26N 51°03' E 002°21'0 0.4
2017-Dec-09 22:55N 51°03' E 002°21'3 5.8
2017-Dec-09 22:24N 51°03' E 002°16'1 0.5
2017-Dec-09 21:17N 51°02' E 002°16'0 0.0
2017-Dec-09 20:59N 51°02' E 002°16'0 0.0
2017-Dec-09 20:26N 51°02' E 002°16'0 0.0
2017-Dec-09 19:56N 51°02' E 002°16'0 0.0
2017-Dec-09 19:23N 51°02' E 002°16'0 0.0
2017-Dec-09 18:59N 51°02' E 002°16'0 0.0
2017-Dec-09 18:26N 51°02' E 002°16'0 0.0
2017-Dec-09 17:53N 51°02' E 002°16'0 0.0
2017-Dec-09 17:29N 51°02' E 002°16'0 0.0
2017-Dec-09 16:53N 51°02' E 002°16'0 0.0
2017-Dec-09 16:26N 51°02' E 002°16'0 0.0
2017-Dec-09 15:35N 51°02' E 002°16'0 0.0
2017-Dec-09 15:29N 51°02' E 002°16'0 0.0
2017-Dec-09 14:59N 51°02' E 002°16'0 0.0
2017-Dec-09 14:14N 51°02' E 002°16'0 0.0
2017-Dec-09 13:44N 51°02' E 002°16'0 0.0
2017-Dec-09 13:29N 51°02' E 002°16'0 0.0
2017-Dec-09 12:59N 51°02' E 002°16'0 0.0
2017-Dec-09 12:29N 51°02' E 002°16'0 0.0
2017-Dec-09 11:59N 51°02' E 002°16'0 0.0
2017-Dec-09 11:29N 51°02' E 002°16'0 0.0
2017-Dec-09 10:59N 51°02' E 002°16'0 0.0
2017-Dec-09 10:26N 51°02' E 002°16'0 0.0
2017-Dec-09 09:59N 51°02' E 002°16'0 0.0
2017-Dec-09 09:14N 51°02' E 002°16'0 0.0
2017-Dec-09 08:59N 51°02' E 002°16'0 0.0
2017-Dec-09 08:29N 51°02' E 002°16'0 0.0
2017-Dec-09 07:44N 51°02' E 002°16'0 0.0
2017-Dec-09 07:23N 51°02' E 002°16'0 0.0
2017-Dec-09 06:55N 51°02' E 002°16'0 0.0
2017-Dec-09 06:25N 51°02' E 002°16'0 0.0
2017-Dec-09 05:58N 51°02' E 002°16'0 0.0
2017-Dec-09 05:28N 51°02' E 002°16'0 0.0
2017-Dec-09 04:10N 51°02' E 002°16'0 0.0
2017-Dec-09 03:52N 51°02' E 002°16'0 0.0
2017-Dec-09 03:22N 51°02' E 002°16'0 0.0
2017-Dec-09 02:58N 51°02' E 002°16'0 0.0
2017-Dec-09 02:28N 51°02' E 002°16'0 0.0
2017-Dec-09 01:58N 51°02' E 002°16'0 0.0
2017-Dec-09 01:28N 51°02' E 002°16'0 0.0
2017-Dec-09 00:58N 51°02' E 002°16'0 0.0
2017-Dec-09 00:28N 51°02' E 002°16'0 0.0
2017-Dec-08 23:58N 51°02' E 002°16'0 0.0
2017-Dec-08 23:22N 51°02' E 002°16'0 0.0
2017-Dec-08 22:58N 51°02' E 002°16'0 0.0
2017-Dec-08 22:25N 51°02' E 002°16'0 0.0
2017-Dec-08 21:58N 51°02' E 002°16'0 0.0
2017-Dec-08 21:13N 51°02' E 002°16'0 0.0
2017-Dec-08 20:55N 51°02' E 002°16'0 0.0
2017-Dec-08 20:28N 51°02' E 002°16'0 0.0
2017-Dec-08 19:58N 51°02' E 002°16'0 0.0
2017-Dec-08 19:22N 51°02' E 002°16'0 0.0
2017-Dec-08 18:58N 51°02' E 002°16'0 0.0
2017-Dec-08 18:28N 51°02' E 002°16'0 0.0
2017-Dec-08 17:58N 51°02' E 002°16'0 0.0
2017-Dec-08 17:28N 51°02' E 002°16'0 0.0
2017-Dec-08 16:55N 51°02' E 002°16'0 0.0
2017-Dec-08 16:22N 51°02' E 002°16'0 0.0
2017-Dec-08 15:58N 51°02' E 002°16'0 0.0
2017-Dec-08 15:28N 51°02' E 002°16'0 0.0
2017-Dec-08 14:55N 51°02' E 002°16'0 0.0
2017-Dec-08 14:28N 51°02' E 002°16'0 0.0
2017-Dec-08 13:58N 51°02' E 002°16'0 0.0
2017-Dec-08 13:16N 51°02' E 002°16'0 0.0
2017-Dec-08 12:43N 51°02' E 002°16'0 0.0
2017-Dec-08 12:27N 51°02' E 002°16'0 0.0
2017-Dec-08 12:01N 51°02' E 002°16'0 0.0
2017-Dec-08 11:30N 51°02' E 002°16'0 0.0
2017-Dec-08 10:58N 51°02' E 002°16'0 0.0
2017-Dec-08 10:27N 51°02' E 002°16'0 0.0
2017-Dec-08 09:57N 51°02' E 002°16'1 2.4
2017-Dec-08 09:28N 51°03' E 002°18'3 5.4
2017-Dec-08 08:57N 51°03' E 002°22'0 0.0
2017-Dec-08 08:27N 51°03' E 002°22'1 2.3
2017-Dec-08 08:00N 51°04' E 002°21'4 6.5
2017-Dec-08 07:27N 51°04' E 002°15'4 8.6
2017-Dec-08 07:00N 51°03' E 002°09'4 8.7
2017-Dec-08 06:30N 51°03' E 002°02'4 8.9
2017-Dec-08 06:00N 51°02' E 001°55'5 9.6
2017-Dec-08 05:30N 51°02' E 001°48'510.6
2017-Dec-08 05:00N 51°02' E 001°39'611.3
2017-Dec-08 04:30N 51°01' E 001°30'4 8.7
2017-Dec-08 04:00N 51°05' E 001°26'510.3
2017-Dec-08 03:30N 51°02' E 001°18'611.7
2017-Dec-08 03:00N 50°59' E 001°11'1010.6
2017-Dec-08 02:04N 50°53' E 000°57'410.4
2017-Dec-08 01:39N 50°54' E 000°50'1 9.9
2017-Dec-08 01:30N 50°54' E 000°48'3 5.6
2017-Dec-08 00:55N 50°56' E 000°46'0 0.1
2017-Dec-08 00:26N 50°56' E 000°46'0 0.0
2017-Dec-07 18:14N 50°56' E 000°46'0 0.0
2017-Dec-07 16:26N 50°56' E 000°46'0 0.0
2017-Dec-07 15:59N 50°56' E 000°46'0 0.0
2017-Dec-07 15:26N 50°56' E 000°46'0 0.0
2017-Dec-07 14:56N 50°56' E 000°46'0 0.0
2017-Dec-07 14:29N 50°56' E 000°46'0 0.0
2017-Dec-07 13:59N 50°56' E 000°46'0 0.0
2017-Dec-07 13:29N 50°56' E 000°46'0 0.0
2017-Dec-07 12:59N 50°56' E 000°46'0 0.0
2017-Dec-07 12:26N 50°56' E 000°46'0 0.0
2017-Dec-07 11:56N 50°56' E 000°46'0 0.0
2017-Dec-07 11:11N 50°56' E 000°46'0 0.0
2017-Dec-07 10:20N 50°56' E 000°46'0 0.0
2017-Dec-07 09:50N 50°56' E 000°46'0 0.0
2017-Dec-07 09:29N 50°56' E 000°46'0 0.0
2017-Dec-07 08:59N 50°56' E 000°46'0 0.0
2017-Dec-07 08:26N 50°56' E 000°46'0 0.0
2017-Dec-07 07:59N 50°56' E 000°46'0 0.0
2017-Dec-07 07:29N 50°56' E 000°46'0 0.0
2017-Dec-07 06:59N 50°56' E 000°46'0 0.0
2017-Dec-07 06:29N 50°56' E 000°46'0 0.0
2017-Dec-07 05:56N 50°56' E 000°46'0 0.0
2017-Dec-07 05:26N 50°56' E 000°46'0 0.0
2017-Dec-07 04:56N 50°56' E 000°46'0 0.0
2017-Dec-07 04:20N 50°56' E 000°46'0 0.0
2017-Dec-07 03:56N 50°56' E 000°46'0 0.0
2017-Dec-07 03:29N 50°56' E 000°46'0 0.0
2017-Dec-07 02:55N 50°56' E 000°46'0 0.0
2017-Dec-07 02:28N 50°56' E 000°46'0 0.0
2017-Dec-07 01:58N 50°56' E 000°46'0 0.0
2017-Dec-07 01:28N 50°56' E 000°46'0 0.0
2017-Dec-07 00:58N 50°56' E 000°46'0 0.0
2017-Dec-07 00:28N 50°56' E 000°46'0 0.0
2017-Dec-06 23:58N 50°56' E 000°46'0 0.0
2017-Dec-06 23:01N 50°56' E 000°46'0 0.1
2017-Dec-06 22:58N 50°56' E 000°46'0 0.0
2017-Dec-06 22:25N 50°56' E 000°46'0 0.0
2017-Dec-06 21:55N 50°56' E 000°46'0 0.0
2017-Dec-06 20:55N 50°56' E 000°46'  
2017-Dec-04 10:29N 50°02' W 004°17'4 7.7
2017-Dec-04 09:57N 50°01' W 004°24'4 8.0
2017-Dec-04 09:28N 50°00' W 004°30'6 8.2
2017-Dec-04 08:47N 49°59' W 004°38'2 8.4
2017-Dec-04 08:30N 49°59' W 004°42'4 8.6
2017-Dec-04 08:01N 49°58' W 004°48'5 9.0
2017-Dec-04 07:25N 49°57' W 004°56'4 9.4
2017-Dec-04 06:59N 49°56' W 005°02'203 6.1
2017-Dec-02 21:26N 53°16' W 004°05'2 4.7
2017-Dec-02 21:00N 53°15' W 004°07'1 0.3
2017-Dec-02 18:53N 53°14' W 004°07'0 0.0
2017-Dec-02 18:29N 53°14' W 004°07'0 0.0
2017-Dec-02 17:59N 53°14' W 004°07'0 0.0
2017-Dec-02 15:41N 53°14' W 004°07'0 0.0
2017-Dec-02 15:23N 53°14' W 004°07'0 0.0
2017-Dec-02 14:59N 53°14' W 004°07'0 0.0
2017-Dec-02 14:23N 53°14' W 004°07'0 0.0
2017-Dec-02 13:56N 53°14' W 004°07'0 0.0
2017-Dec-02 13:29N 53°14' W 004°07'0 0.0
2017-Dec-02 12:53N 53°14' W 004°07'0 0.0
2017-Dec-02 12:23N 53°14' W 004°07'0 0.0
2017-Dec-02 06:47N 53°14' W 004°07'0 0.0
2017-Dec-02 06:20N 53°14' W 004°07'0 0.0
2017-Dec-02 05:56N 53°14' W 004°07'0 0.0
2017-Dec-02 05:29N 53°14' W 004°07'0 0.0
2017-Dec-02 04:44N 53°14' W 004°07'0 0.0
2017-Dec-02 04:26N 53°14' W 004°07'0 0.0
2017-Dec-02 03:56N 53°14' W 004°07'0 0.0
2017-Dec-02 03:29N 53°14' W 004°07'0 0.0
2017-Dec-02 02:59N 53°14' W 004°07'0 0.0
2017-Dec-02 02:23N 53°14' W 004°07'0 0.0
2017-Dec-02 01:53N 53°14' W 004°07'0 0.0
2017-Dec-02 01:23N 53°14' W 004°07'0 0.0
2017-Dec-02 00:50N 53°14' W 004°07'0 0.0
2017-Dec-02 00:29N 53°14' W 004°07'0 0.0
2017-Dec-01 23:59N 53°14' W 004°07'0 0.0
2017-Dec-01 23:23N 53°14' W 004°07'0 0.0
2017-Dec-01 20:32N 53°14' W 004°07'0 0.1
2017-Dec-01 20:30N 53°14' W 004°07'3 4.4
2017-Dec-01 19:46N 53°17' W 004°04'4 1.9
2017-Dec-01 17:40N 53°20' W 003°59'0 0.0
2017-Dec-01 17:25N 53°20' W 003°59'0 0.0
2017-Dec-01 16:52N 53°20' W 003°59'0 0.0
2017-Dec-01 16:25N 53°20' W 003°59'0 0.0
2017-Dec-01 15:58N 53°20' W 003°59'0 0.0
2017-Dec-01 15:19N 53°20' W 003°59'0 0.0
2017-Dec-01 14:55N 53°20' W 003°59'0 0.0
2017-Dec-01 14:19N 53°20' W 003°59'0 0.0
2017-Dec-01 12:49N 53°20' W 003°59'0 1.0
2017-Dec-01 12:29N 53°19' W 003°59'6 8.0
2017-Dec-01 11:40N 53°26' W 003°55'  

Dump ship's entire track history